createdAt,value
2018-09-13T00:01:40.615Z,97137.36
2018-09-13T00:04:09.756Z,97137.80
2018-09-13T00:06:38.917Z,97134.41
2018-09-13T00:09:09.320Z,97134.43
2018-09-13T00:11:38.846Z,97134.43
2018-09-13T00:14:08.049Z,97134.43
2018-09-13T00:16:37.237Z,97134.43
2018-09-13T00:19:06.538Z,97133.63
2018-09-13T00:21:35.702Z,97126.39
2018-09-13T00:24:04.876Z,97123.45
2018-09-13T00:26:34.808Z,97117.48
2018-09-13T00:29:03.993Z,97115.80
2018-09-13T00:31:33.149Z,97112.41
2018-09-13T00:34:02.433Z,97110.30
2018-09-13T00:36:31.576Z,97114.19
2018-09-13T00:39:00.871Z,97106.49
2018-09-13T00:41:30.177Z,97114.18
2018-09-13T00:44:00.180Z,97117.20
2018-09-13T00:46:31.125Z,97103.59
2018-09-13T00:49:00.386Z,97120.22
2018-09-13T00:51:29.572Z,97113.42
2018-09-13T00:53:58.790Z,97107.47
2018-09-13T00:56:28.234Z,97103.67
2018-09-13T00:58:57.451Z,97102.44
2018-09-13T01:01:26.657Z,97104.56
2018-09-13T01:03:55.818Z,97106.75
2018-09-13T01:06:24.990Z,97109.36
2018-09-13T01:08:54.151Z,97107.34
2018-09-13T01:11:23.320Z,97102.66
2018-09-13T01:13:52.541Z,97105.66
2018-09-13T01:16:21.756Z,97104.42
2018-09-13T01:18:50.973Z,97104.89
2018-09-13T01:21:22.100Z,97100.64
2018-09-13T01:23:51.308Z,97094.29
2018-09-13T01:26:20.499Z,97096.03
2018-09-13T01:28:49.640Z,97099.95
2018-09-13T01:31:21.490Z,97091.46
2018-09-13T01:33:50.686Z,97085.10
2018-09-13T01:36:20.189Z,97084.30
2018-09-13T01:38:49.613Z,97082.22
2018-09-13T01:46:28.669Z,97091.59
2018-09-13T01:48:57.797Z,97093.71
2018-09-13T01:51:26.961Z,97094.55
2018-09-13T01:53:56.157Z,97088.55
2018-09-13T01:56:25.352Z,97094.95
2018-09-13T01:58:54.775Z,97097.12
2018-09-13T02:01:23.925Z,97100.59
2018-09-13T02:03:53.220Z,97099.33
2018-09-13T02:06:22.429Z,97091.28
2018-09-13T02:08:51.673Z,97090.89
2018-09-13T02:11:21.623Z,97087.89
2018-09-13T02:13:50.833Z,97084.05
2018-09-13T02:16:20.269Z,97088.38
2018-09-13T02:18:50.013Z,97079.38
2018-09-13T02:26:19.267Z,97072.45
2018-09-13T02:28:48.615Z,97075.83
2018-09-13T02:31:18.129Z,97080.08
2018-09-13T02:33:47.369Z,97075.86
2018-09-13T02:36:16.937Z,97074.60
2018-09-13T02:38:46.278Z,97066.52
2018-09-13T02:41:15.793Z,97075.05
2018-09-13T02:43:44.927Z,97076.85
2018-09-13T02:46:16.107Z,97067.52
2018-09-13T02:48:47.077Z,97054.75
2018-09-13T02:51:16.519Z,97063.31
2018-09-13T02:53:45.860Z,97059.91
2018-09-13T02:56:15.385Z,97061.61
2018-09-13T02:58:44.548Z,97058.58
2018-09-13T03:01:14.199Z,97062.42
2018-09-13T03:03:43.369Z,97066.66
2018-09-13T03:06:12.513Z,97064.10
2018-09-13T03:08:42.135Z,97061.58
2018-09-13T03:11:11.303Z,97057.31
2018-09-13T03:13:40.487Z,97059.45
2018-09-13T03:16:10.143Z,97055.62
2018-09-13T03:18:39.341Z,97055.62
2018-09-13T03:21:10.451Z,97056.91
2018-09-13T03:23:39.660Z,97052.21
2018-09-13T03:26:09.102Z,97053.05
2018-09-13T03:28:38.343Z,97051.30
2018-09-13T03:31:08.842Z,97054.70
2018-09-13T03:33:38.373Z,97052.13
2018-09-13T03:36:07.567Z,97056.38
2018-09-13T03:38:38.449Z,97061.50
2018-09-13T03:41:07.606Z,97067.92
2018-09-13T03:43:36.937Z,97072.69
2018-09-13T03:46:06.104Z,97071.03
2018-09-13T03:48:35.289Z,97088.98
2018-09-13T03:51:04.773Z,97099.25
2018-09-13T03:53:34.107Z,97126.55
2018-09-13T03:56:03.513Z,97097.64
2018-09-13T03:58:32.709Z,97078.02
2018-09-13T04:01:02.301Z,97091.63
2018-09-13T04:03:31.591Z,97106.92
2018-09-13T04:06:00.757Z,97110.28
2018-09-13T04:08:30.113Z,97107.69
2018-09-13T04:10:59.322Z,97105.09
2018-09-13T04:13:28.526Z,97098.25
2018-09-13T04:15:57.699Z,97112.29
2018-09-13T04:18:29.467Z,97114.81
2018-09-13T04:20:58.661Z,97091.73
2018-09-13T04:23:27.866Z,97104.48
2018-09-13T04:25:57.126Z,97088.27
2018-09-13T04:28:26.345Z,97090.41
2018-09-13T04:30:55.582Z,97100.20
2018-09-13T04:33:24.699Z,97106.16
2018-09-13T04:35:54.040Z,97093.77
2018-09-13T04:38:23.365Z,97090.80
2018-09-13T04:40:52.596Z,97102.28
2018-09-13T04:43:21.801Z,97104.82
2018-09-13T04:45:51.445Z,97107.35
2018-09-13T05:03:16.889Z,97080.64
2018-09-13T05:05:46.085Z,97080.55
2018-09-13T05:08:15.605Z,97095.03
2018-09-13T05:10:44.777Z,97097.55
2018-09-13T05:13:14.234Z,97103.49
2018-09-13T05:15:45.017Z,97096.16
2018-09-13T05:18:14.449Z,97100.80
2018-09-13T05:20:43.606Z,97095.20
2018-09-13T05:23:13.590Z,97103.67
2018-09-13T05:25:49.476Z,97105.69
2018-09-13T05:28:19.076Z,97108.23
2018-09-13T05:30:48.248Z,97104.73
2018-09-13T05:33:17.790Z,97100.42
2018-09-13T05:35:47.004Z,97101.20
2018-09-13T05:38:16.597Z,97099.41
2018-09-13T05:40:45.818Z,97103.66
2018-09-13T05:43:15.377Z,97098.88
2018-09-13T05:45:44.608Z,97100.97
2018-09-13T05:48:13.850Z,97106.45
2018-09-13T05:50:43.450Z,97103.38
2018-09-13T05:53:13.258Z,97110.14
2018-09-13T05:55:42.422Z,97106.64
2018-09-13T05:58:11.687Z,97107.47
2018-09-13T06:00:42.629Z,97105.70
2018-09-13T06:03:13.058Z,97104.77
2018-09-13T06:05:47.284Z,97114.12
2018-09-13T06:08:21.630Z,97106.41
2018-09-13T06:10:53.625Z,97101.73
2018-09-13T06:13:27.265Z,97110.72
2018-09-13T06:15:57.556Z,97107.30
2018-09-13T06:18:26.777Z,97109.02
2018-09-13T06:20:56.962Z,97110.69
2018-09-13T06:23:26.240Z,97111.09
2018-09-13T06:25:55.486Z,97112.31
2018-09-13T06:28:24.684Z,97109.73
2018-09-13T06:30:53.846Z,97114.74
2018-09-13T06:33:23.012Z,97114.69
2018-09-13T06:35:52.389Z,97110.68
2018-09-13T06:43:21.210Z,97105.34
2018-09-13T06:45:50.409Z,97100.86
2018-09-13T06:48:19.956Z,97101.50
2018-09-13T06:50:49.183Z,97099.51
2018-09-13T06:53:18.829Z,97101.44
2018-09-13T06:55:48.007Z,97103.24
2018-09-13T06:58:17.565Z,97108.12
2018-09-13T07:00:46.843Z,97111.74
2018-09-13T07:03:16.463Z,97115.41
2018-09-13T07:05:46.424Z,97115.94
2018-09-13T07:08:16.027Z,97119.20
2018-09-13T07:10:45.225Z,97121.36
2018-09-13T07:13:14.378Z,97115.09
2018-09-13T07:15:43.978Z,97117.45
2018-09-13T07:18:13.196Z,97120.67
2018-09-13T07:20:42.374Z,97114.56
2018-09-13T07:23:11.548Z,97118.63
2018-09-13T07:25:43.405Z,97127.36
2018-09-13T07:28:12.575Z,97129.28
2018-09-13T07:30:43.639Z,97136.87
2018-09-13T07:33:12.845Z,97132.44
2018-09-13T07:35:42.112Z,97134.20
2018-09-13T07:38:11.340Z,97134.05
2018-09-13T07:40:40.566Z,97130.52
2018-09-13T07:43:13.241Z,97129.99
2018-09-13T07:45:45.073Z,97137.50
2018-09-13T07:48:14.350Z,97142.98
2018-09-13T07:50:43.808Z,97142.89
2018-09-13T07:53:13.001Z,97142.41
2018-09-13T07:55:42.311Z,97138.48
2018-09-13T07:58:13.350Z,97139.25
2018-09-13T08:00:43.342Z,97136.52
2018-09-13T08:03:12.467Z,97139.19
2018-09-13T08:05:41.673Z,97134.09
2018-09-13T08:08:10.888Z,97139.25
2018-09-13T08:10:40.062Z,97138.48
2018-09-13T08:13:09.253Z,97133.43
2018-09-13T08:15:40.218Z,97138.78
2018-09-13T08:18:09.671Z,97136.30
2018-09-13T08:20:38.900Z,97141.55
2018-09-13T08:23:09.910Z,97152.16
2018-09-13T08:25:39.132Z,97150.81
2018-09-13T08:28:08.361Z,97148.47
2018-09-13T08:30:37.557Z,97146.28
2018-09-13T08:33:06.739Z,97147.18
2018-09-13T08:35:35.896Z,97142.73
2018-09-13T08:38:05.142Z,97141.77
2018-09-13T08:40:35.139Z,97152.89
2018-09-13T08:43:04.485Z,97148.66
2018-09-13T08:45:33.842Z,97153.70
2018-09-13T08:48:03.070Z,97147.91
2018-09-13T08:50:34.049Z,97155.88
2018-09-13T08:53:03.261Z,97154.10
2018-09-13T08:55:32.436Z,97157.16
2018-09-13T08:58:01.639Z,97150.62
2018-09-13T09:00:31.686Z,97159.92
2018-09-13T09:03:00.831Z,97156.47
2018-09-13T09:05:30.020Z,97157.23
2018-09-13T09:07:59.260Z,97160.68
2018-09-13T09:10:28.560Z,97165.03
2018-09-13T09:12:59.704Z,97161.48
2018-09-13T09:15:28.845Z,97159.72
2018-09-13T09:17:58.021Z,97163.00
2018-09-13T09:20:27.284Z,97158.65
2018-09-13T09:22:56.525Z,97159.28
2018-09-13T09:25:25.738Z,97150.05
2018-09-13T09:27:55.000Z,97145.59
2018-09-13T09:30:24.540Z,97144.55
2018-09-13T09:32:54.177Z,97141.77
2018-09-13T10:22:51.617Z,97125.13
2018-09-13T10:25:26.466Z,97122.09
2018-09-13T10:28:03.500Z,97125.39
2018-09-13T10:30:37.872Z,97130.82
2018-09-13T10:33:12.179Z,97125.61
2018-09-13T10:35:46.663Z,97124.44
2018-09-13T10:38:21.058Z,97122.03
2018-09-13T10:40:55.648Z,97122.97
2018-09-13T10:43:30.493Z,97118.65
2018-09-13T10:46:04.903Z,97124.62
2018-09-13T10:48:34.108Z,97118.53
2018-09-13T10:51:11.337Z,97117.67
2018-09-13T10:53:46.660Z,97119.37
2018-09-13T10:56:16.202Z,97121.84
2018-09-13T10:58:45.442Z,97113.83
2018-09-13T11:01:14.714Z,97115.47
2018-09-13T11:03:43.880Z,97106.06
2018-09-13T11:06:13.138Z,97109.31
2018-09-13T11:08:42.405Z,97116.23
2018-09-13T11:11:11.740Z,97108.38
2018-09-13T11:13:47.782Z,97101.05
2018-09-13T11:16:17.312Z,97105.86
2018-09-13T11:18:46.526Z,97098.61
2018-09-13T11:21:15.677Z,97095.54
2018-09-13T11:23:45.226Z,97091.41
2018-09-13T11:26:14.525Z,97093.36
2018-09-13T11:28:44.554Z,97096.08
2018-09-13T11:31:13.983Z,97091.88
2018-09-13T11:33:44.896Z,97080.48
2018-09-13T11:36:14.066Z,97081.44
2018-09-13T11:38:45.076Z,97074.30
2018-09-13T11:41:14.385Z,97071.20
2018-09-13T11:43:45.366Z,97065.63
2018-09-13T11:46:14.593Z,97060.06
2018-09-13T11:48:43.833Z,97060.93
2018-09-13T11:51:13.058Z,97056.38
2018-09-13T11:53:44.078Z,97055.70
2018-09-13T11:56:13.258Z,97049.06
2018-09-13T11:58:42.522Z,97051.87
2018-09-13T12:01:11.737Z,97064.97
2018-09-13T12:03:40.919Z,97060.44
2018-09-13T12:06:10.279Z,97058.22
2018-09-13T12:08:41.249Z,97055.52
2018-09-13T12:11:10.432Z,97048.36
2018-09-13T12:13:40.356Z,97044.98
2018-09-13T12:16:09.590Z,97043.31
2018-09-13T12:18:38.800Z,97041.91
2018-09-13T12:21:09.802Z,97043.05
2018-09-13T12:23:40.697Z,97035.91
2018-09-13T12:26:09.909Z,97037.46
2018-09-13T12:28:39.891Z,97034.98
2018-09-13T12:31:09.073Z,97028.25
2018-09-13T12:33:40.044Z,97018.56
2018-09-13T12:36:09.244Z,97024.23
2018-09-13T12:38:39.877Z,97019.46
2018-09-13T12:41:09.049Z,97011.97
2018-09-13T12:43:38.334Z,97016.31
2018-09-13T12:46:07.592Z,97012.87
2018-09-13T12:48:36.796Z,97004.96
2018-09-13T12:51:06.158Z,97001.44
2018-09-13T12:53:35.437Z,97005.59
2018-09-13T12:56:04.850Z,97000.66
2018-09-13T12:58:34.145Z,96999.89
2018-09-13T13:01:03.492Z,97002.63
2018-09-13T13:03:32.763Z,97003.83
2018-09-13T13:06:02.063Z,96997.94
2018-09-13T13:08:31.308Z,96996.67
2018-09-13T13:11:00.627Z,96994.58
2018-09-13T13:13:29.894Z,96996.45
2018-09-13T13:15:59.195Z,96991.41
2018-09-13T13:18:30.486Z,96987.11
2018-09-13T13:20:59.649Z,96983.64
2018-09-13T13:23:28.869Z,96983.32
2018-09-13T13:25:58.367Z,96982.47
2018-09-13T13:28:28.388Z,96972.36
2018-09-13T13:30:57.633Z,96970.91
2018-09-13T13:33:26.885Z,96967.20
2018-09-13T13:35:56.580Z,96961.41
2018-09-13T14:04:47.036Z,96946.73
2018-09-13T14:07:16.422Z,96942.97
2018-09-13T14:09:47.966Z,96936.02
2018-09-13T14:12:17.817Z,96938.98
2018-09-13T14:14:51.305Z,96932.31
2018-09-13T14:17:21.157Z,96929.03
2018-09-13T14:19:50.319Z,96920.72
2018-09-13T14:22:21.713Z,96917.59
2018-09-13T14:24:53.433Z,96914.10
2018-09-13T14:27:34.402Z,96915.58
2018-09-13T14:30:03.635Z,96909.77
2018-09-13T14:32:32.937Z,96911.44
2018-09-13T14:35:02.331Z,96907.02
2018-09-13T14:37:31.665Z,96909.71
2018-09-13T14:40:00.983Z,96909.96
2018-09-13T14:42:30.294Z,96907.61
2018-09-13T14:44:59.478Z,96904.45
2018-09-13T14:47:28.682Z,96896.98
2018-09-13T14:49:58.103Z,96893.24
2018-09-13T14:52:27.484Z,96896.21
2018-09-13T14:54:57.185Z,96899.58
2018-09-13T15:02:32.808Z,96911.87
2018-09-13T15:05:03.321Z,96913.70
2018-09-13T15:07:32.762Z,96920.76
2018-09-13T15:10:02.819Z,96918.70
2018-09-13T15:12:32.001Z,96924.44
2018-09-13T15:15:01.448Z,96924.84
2018-09-13T15:17:30.767Z,96937.09
2018-09-13T15:19:59.981Z,96933.02
2018-09-13T15:22:29.187Z,96931.08
2018-09-13T15:24:58.553Z,96931.33
2018-09-13T15:27:30.569Z,96937.03
2018-09-13T15:42:53.040Z,96958.00
2018-09-13T15:45:22.168Z,96955.14
2018-09-13T15:47:51.346Z,96963.28
2018-09-13T15:50:20.523Z,96957.03
2018-09-13T15:52:49.748Z,96961.23
2018-09-13T15:55:19.620Z,96965.19
2018-09-13T15:57:55.411Z,96969.89
2018-09-13T16:00:27.158Z,96965.79
2018-09-13T16:02:56.509Z,96971.12
2018-09-13T16:05:25.911Z,96967.02
2018-09-13T16:07:55.794Z,96973.23
2018-09-13T16:10:25.165Z,96969.94
2018-09-13T16:12:54.555Z,96973.37
2018-09-13T16:15:27.709Z,96973.78
2018-09-13T16:17:56.945Z,96978.75
2018-09-13T16:20:26.387Z,96973.65
2018-09-13T16:22:55.374Z,96968.57
2018-09-13T16:25:24.488Z,96973.23
2018-09-13T16:27:53.711Z,96976.30
2018-09-13T16:30:22.915Z,96969.45
2018-09-13T16:32:52.103Z,96962.34
2018-09-13T16:35:21.411Z,96964.25
2018-09-13T16:37:56.021Z,96959.32
2018-09-13T16:40:30.675Z,96962.97
2018-09-13T16:43:05.362Z,96961.89
2018-09-13T16:45:34.600Z,96970.98
2018-09-13T16:48:05.351Z,96974.55
2018-09-13T16:50:34.706Z,96971.44
2018-09-13T16:53:04.360Z,96961.16
2018-09-13T16:55:33.820Z,96967.44
2018-09-13T17:01:02.820Z,96948.84
2018-09-13T17:03:32.036Z,96938.47
2018-09-13T17:06:01.188Z,96941.61
2018-09-13T17:08:30.364Z,96938.14
2018-09-13T17:10:59.565Z,96933.08
2018-09-13T17:13:29.668Z,96930.56
2018-09-13T17:15:59.712Z,96927.98
2018-09-13T17:18:29.731Z,96926.16
2018-09-13T17:20:59.687Z,96938.14
2018-09-13T17:23:29.817Z,96931.36
2018-09-13T17:25:59.753Z,96936.52
2018-09-13T17:28:29.839Z,96934.94
2018-09-13T17:30:59.909Z,96942.00
2018-09-13T17:33:29.961Z,96940.56
2018-09-13T17:35:59.948Z,96940.95
2018-09-13T17:38:30.167Z,96941.38
2018-09-13T17:41:00.832Z,96944.81
2018-09-13T17:43:30.253Z,96943.14
2018-09-13T17:46:00.021Z,96933.33
2018-09-13T17:48:29.967Z,96932.91
2018-09-13T17:51:00.052Z,96947.52
2018-09-13T17:53:30.067Z,96949.33
2018-09-13T17:56:00.156Z,96948.52
2018-09-13T17:58:30.321Z,96945.14
2018-09-13T18:01:03.583Z,96947.29
2018-09-13T18:03:33.130Z,96934.12
2018-09-13T18:06:02.488Z,96934.17
2018-09-13T18:08:31.843Z,96932.50
2018-09-13T18:11:01.308Z,96928.25
2018-09-13T18:13:30.755Z,96929.92
2018-09-13T18:16:00.874Z,96940.13
2018-09-13T18:18:30.519Z,96933.31
2018-09-13T18:21:01.927Z,96943.69
2018-09-13T18:23:31.528Z,96944.47
2018-09-13T18:26:01.237Z,96959.05
2018-09-13T18:28:31.116Z,96968.44
2018-09-13T18:31:01.028Z,96973.28
2018-09-13T18:33:30.687Z,96976.38
2018-09-13T18:36:01.312Z,96983.29
2018-09-13T18:38:31.109Z,96988.94
2018-09-13T18:41:01.088Z,96990.23
2018-09-13T18:43:30.827Z,96995.77
2018-09-13T18:46:00.996Z,97004.85
2018-09-13T18:48:31.084Z,97001.12
2018-09-13T18:51:01.323Z,97018.66
2018-09-13T18:53:31.072Z,97026.45
2018-09-13T18:56:01.263Z,97015.37
2018-09-13T18:58:31.169Z,97023.63
2018-09-13T19:01:01.147Z,97020.25
2018-09-13T19:03:31.544Z,97030.61
2018-09-13T19:06:01.315Z,97029.33
2018-09-13T19:08:31.392Z,97035.76
2018-09-13T19:11:01.464Z,97035.41
2018-09-13T19:13:32.523Z,97044.84
2018-09-13T19:16:02.763Z,97045.69
2018-09-13T19:18:32.334Z,97046.13
2018-09-13T19:21:02.062Z,97043.13
2018-09-13T19:23:31.781Z,97041.92
2018-09-13T19:26:01.757Z,97046.67
2018-09-13T19:28:31.956Z,97051.42
2018-09-13T19:31:01.708Z,97057.92
2018-09-13T19:33:31.418Z,97063.11
2018-09-13T19:36:01.449Z,97064.86
2018-09-13T19:38:31.646Z,97057.19
2018-09-13T19:41:01.775Z,97053.80
2018-09-13T19:43:31.698Z,97064.98
2018-09-13T19:46:02.213Z,97066.73
2018-09-13T19:48:31.940Z,97063.34
2018-09-13T19:51:02.854Z,97058.27
2018-09-13T19:53:32.548Z,97061.31
2018-09-13T19:56:03.120Z,97063.48
2018-09-13T19:58:33.435Z,97066.09
2018-09-13T20:01:03.137Z,97064.49
2018-09-13T20:03:33.022Z,97071.34
2018-09-13T20:06:02.640Z,97061.95
2018-09-13T20:08:32.281Z,97068.84
2018-09-13T20:11:03.584Z,97067.17
2018-09-13T20:13:33.100Z,97070.67
2018-09-13T20:16:03.820Z,97065.59
2018-09-13T20:18:33.644Z,97066.89
2018-09-13T20:21:03.484Z,97063.09
2018-09-13T20:23:32.988Z,97063.92
2018-09-13T20:29:02.992Z,97067.42
2018-09-13T20:31:32.598Z,97066.17
2018-09-13T20:34:02.260Z,97061.53
2018-09-13T20:36:32.998Z,97063.67
2018-09-13T20:39:02.455Z,97065.84
2018-09-13T20:41:32.014Z,97071.45
2018-09-13T21:11:59.789Z,97081.89
2018-09-13T21:14:29.064Z,97077.64
2018-09-13T21:16:58.229Z,97070.80
2018-09-13T21:19:27.457Z,97073.36
2018-09-13T21:21:56.788Z,97069.97
2018-09-13T21:24:26.539Z,97075.17
2018-09-13T21:26:56.464Z,97077.77
2018-09-13T21:29:26.497Z,97072.59
2018-09-13T21:31:56.641Z,97078.12
2018-09-13T21:34:27.136Z,97072.99
2018-09-13T21:36:56.569Z,97075.56
2018-09-13T21:39:26.587Z,97076.02
2018-09-13T21:41:57.836Z,97066.73
2018-09-13T21:44:27.525Z,97072.66
2018-09-13T21:46:57.156Z,97076.97
2018-09-13T21:49:28.184Z,97079.53
2018-09-13T21:51:58.274Z,97074.89
2018-09-13T21:54:28.669Z,97077.06
2018-09-13T21:56:58.283Z,97079.63
2018-09-13T21:59:29.298Z,97074.56
2018-09-13T22:01:59.436Z,97083.11
2018-09-13T22:04:28.957Z,97086.56
2018-09-13T22:06:59.707Z,97089.13
2018-09-13T22:09:29.078Z,97085.73
2018-09-13T22:11:58.379Z,97082.28
2018-09-13T22:14:28.917Z,97077.64
2018-09-13T22:17:01.932Z,97078.50
2018-09-13T22:19:32.187Z,97074.64
2018-09-13T22:22:01.911Z,97082.28
2018-09-13T22:24:32.169Z,97086.16
2018-09-13T22:27:02.221Z,97087.91
2018-09-13T22:29:32.618Z,97081.52
2018-09-13T22:32:01.781Z,97092.22
2018-09-13T22:34:32.260Z,97088.39
2018-09-13T22:37:03.635Z,97091.76
2018-09-13T22:39:33.408Z,97090.88
2018-09-13T22:42:03.722Z,97093.38
2018-09-13T22:44:38.568Z,97091.64
2018-09-13T22:47:08.622Z,97085.65
2018-09-13T22:49:38.209Z,97089.07
2018-09-13T22:52:08.152Z,97091.18
2018-09-13T22:54:38.264Z,97078.74
2018-09-13T22:57:09.847Z,97083.84
2018-09-13T22:59:39.342Z,97084.70
2018-09-13T23:02:08.680Z,97093.20
2018-09-13T23:04:37.865Z,97091.09
2018-09-13T23:07:07.217Z,97090.63
2018-09-13T23:09:36.646Z,97080.36
2018-09-13T23:12:06.038Z,97077.80
2018-09-13T23:14:35.558Z,97070.95
2018-09-13T23:17:04.957Z,97080.30
2018-09-13T23:19:34.175Z,97084.52
2018-09-13T23:22:03.980Z,97087.08
2018-09-13T23:24:33.388Z,97078.95
2018-09-13T23:27:03.028Z,97080.70
2018-09-13T23:29:32.409Z,97078.56
2018-09-13T23:32:01.545Z,97081.52
2018-09-13T23:34:30.794Z,97084.52
2018-09-13T23:37:00.102Z,97084.52
2018-09-13T23:39:29.996Z,97083.23
2018-09-13T23:41:59.272Z,97086.20
2018-09-13T23:44:28.656Z,97087.88
2018-09-13T23:46:58.672Z,97086.20
2018-09-13T23:49:28.052Z,97083.56
2018-09-13T23:51:57.748Z,97083.53
2018-09-13T23:54:27.912Z,97084.81
2018-09-13T23:56:57.872Z,97092.95
2018-09-13T23:59:28.081Z,97095.13
